createdAt,value
2022-09-06T00:00:19.791Z,95728.44
2022-09-06T00:03:22.809Z,95731.91
2022-09-06T00:06:25.855Z,95731.59
2022-09-06T00:09:28.887Z,95730.81
2022-09-06T00:12:34.335Z,95730.81
2022-09-06T00:15:38.651Z,95730.31
2022-09-06T00:18:42.115Z,95733.59
2022-09-06T00:21:45.229Z,95730.03
2022-09-06T00:24:48.223Z,95737.53
2022-09-06T00:27:57.454Z,95729.03
2022-09-06T00:31:00.581Z,95729.53
2022-09-06T00:34:03.667Z,95732.19
2022-09-06T00:37:06.760Z,95731.09
2022-09-06T00:40:10.823Z,95729.22
2022-09-06T00:43:15.412Z,95728.75
2022-09-06T00:46:22.214Z,95731.91
2022-09-06T00:49:31.919Z,95727.66
2022-09-06T00:52:35.939Z,95718.06
2022-09-06T00:55:41.659Z,95716.97
2022-09-06T00:58:46.774Z,95723.88
2022-09-06T01:01:49.897Z,95727.66
2022-09-06T01:04:53.504Z,95727.03
2022-09-06T01:08:05.934Z,95727.03
2022-09-06T01:11:37.035Z,95733.97
2022-09-06T01:14:55.842Z,95728.94
2022-09-06T01:18:09.883Z,95730.81
2022-09-06T01:21:28.977Z,95734.56
2022-09-06T01:24:51.404Z,95723.69
2022-09-06T01:28:18.707Z,95734.09
2022-09-06T01:31:29.982Z,95727.16
2022-09-06T01:34:39.183Z,95724.97
2022-09-06T01:37:43.263Z,95725.56
2022-09-06T01:40:46.275Z,95725.09
2022-09-06T01:43:53.401Z,95717.69
2022-09-06T01:47:05.923Z,95709.94
2022-09-06T01:50:41.571Z,95701.13
2022-09-06T01:54:06.067Z,95702.72
2022-09-06T01:57:23.348Z,95699.75
2022-09-06T02:00:28.117Z,95703.50
2022-09-06T02:03:38.009Z,95696.38
2022-09-06T02:06:46.163Z,95700.34
2022-09-06T02:09:55.874Z,95686.66
2022-09-06T02:13:03.333Z,95689.66
2022-09-06T02:16:09.365Z,95689.34
2022-09-06T02:19:18.595Z,95685.88
2022-09-06T02:22:25.138Z,95696.09
2022-09-06T02:25:33.180Z,95691.03
2022-09-06T02:28:36.657Z,95692.91
2022-09-06T02:31:46.843Z,95695.91
2022-09-06T02:34:51.137Z,95693.53
2022-09-06T02:37:54.265Z,95698.56
2022-09-06T02:40:58.037Z,95703.91
2022-09-06T02:44:01.072Z,95695.91
2022-09-06T02:47:06.073Z,95699.97
2022-09-06T02:50:09.930Z,95701.53
2022-09-06T02:53:15.115Z,95701.53
2022-09-06T02:56:18.116Z,95704.63
2022-09-06T02:59:21.215Z,95705.72
2022-09-06T03:02:26.065Z,95707.59
2022-09-06T03:05:29.979Z,95705.72
2022-09-06T03:08:34.301Z,95698.28
2022-09-06T03:11:37.411Z,95695.59
2022-09-06T03:14:41.363Z,95691.34
2022-09-06T03:17:46.016Z,95687.59
2022-09-06T03:20:50.368Z,95695.03
2022-09-06T03:23:54.832Z,95697.19
2022-09-06T03:26:57.843Z,95695.03
2022-09-06T03:30:00.959Z,95696.22
2022-09-06T03:33:05.488Z,95698.38
2022-09-06T03:36:09.444Z,95700.88
2022-09-06T03:39:12.443Z,95704.34
2022-09-06T03:42:15.510Z,95710.94
2022-09-06T03:45:18.631Z,95711.25
2022-09-06T03:48:25.133Z,95712.84
2022-09-06T03:51:28.259Z,95708.28
2022-09-06T03:54:31.261Z,95712.25
2022-09-06T03:57:34.335Z,95714.72
2022-09-06T04:00:37.437Z,95716.59
2022-09-06T04:03:43.475Z,95718.00
2022-09-06T04:06:46.532Z,95722.53
2022-09-06T04:09:49.721Z,95725.88
2022-09-06T04:12:52.788Z,95722.13
2022-09-06T04:15:55.997Z,95723.22
2022-09-06T04:19:02.737Z,95723.72
2022-09-06T04:22:05.785Z,95722.72
2022-09-06T04:25:09.788Z,95729.66
2022-09-06T04:28:12.784Z,95720.97
2022-09-06T04:31:15.869Z,95730.44
2022-09-06T04:34:20.800Z,95729.06
2022-09-06T04:37:23.870Z,95728.75
2022-09-06T04:40:27.013Z,95728.97
2022-09-06T04:43:30.038Z,95728.69
2022-09-06T04:46:33.118Z,95722.25
2022-09-06T04:49:37.696Z,95727.66
2022-09-06T04:52:40.737Z,95723.03
2022-09-06T04:55:43.871Z,95726.09
2022-09-06T04:58:48.127Z,95724.50
2022-09-06T05:01:51.232Z,95722.63
2022-09-06T05:04:55.689Z,95719.34
2022-09-06T05:07:58.839Z,95719.34
2022-09-06T05:11:01.894Z,95719.16
2022-09-06T05:14:05.048Z,95720.75
2022-09-06T05:17:08.132Z,95717.28
2022-09-06T05:20:13.487Z,95713.44
2022-09-06T05:23:16.494Z,95712.03
2022-09-06T05:26:19.530Z,95717.50
2022-09-06T05:29:22.594Z,95706.09
2022-09-06T05:32:25.729Z,95707.38
2022-09-06T05:35:30.277Z,95710.06
2022-09-06T05:38:33.759Z,95713.03
2022-09-06T05:41:38.076Z,95715.63
2022-09-06T05:44:41.970Z,95716.19
2022-09-06T05:47:46.384Z,95725.41
2022-09-06T05:51:00.984Z,95720.06
2022-09-06T05:54:04.063Z,95718.38
2022-09-06T05:57:07.264Z,95718.75
2022-09-06T06:00:12.393Z,95717.88
2022-09-06T06:03:15.434Z,95710.53
2022-09-06T06:06:20.159Z,95704.38
2022-09-06T06:09:23.214Z,95708.34
2022-09-06T06:12:26.265Z,95710.38
2022-09-06T06:15:29.261Z,95703.75
2022-09-06T06:18:32.406Z,95703.72
2022-09-06T06:21:38.545Z,95701.38
2022-09-06T06:24:41.579Z,95700.69
2022-09-06T06:27:44.583Z,95700.53
2022-09-06T06:30:47.683Z,95692.38
2022-09-06T06:33:51.149Z,95707.25
2022-09-06T06:36:56.919Z,95697.50
2022-09-06T06:40:00.148Z,95694.69
2022-09-06T06:43:03.338Z,95695.09
2022-09-06T06:46:16.095Z,95692.28
2022-09-06T06:49:19.984Z,95692.16
2022-09-06T06:52:24.498Z,95692.16
2022-09-06T06:55:27.500Z,95695.78
2022-09-06T06:58:32.177Z,95702.13
2022-09-06T07:01:36.905Z,95697.41
2022-09-06T07:04:40.059Z,95697.28
2022-09-06T07:07:44.537Z,95700.44
2022-09-06T07:10:47.592Z,95709.63
2022-09-06T07:13:50.677Z,95696.69
2022-09-06T07:16:58.320Z,95698.13
2022-09-06T07:20:16.917Z,95714.22
2022-09-06T07:30:08.777Z,95710.16
2022-09-06T07:33:11.868Z,95716.47
2022-09-06T07:36:14.967Z,95708.28
2022-09-06T07:39:19.392Z,95711.75
2022-09-06T07:42:22.588Z,95713.47
2022-09-06T07:45:25.927Z,95712.88
2022-09-06T07:48:31.428Z,95711.50
2022-09-06T07:51:34.520Z,95713.56
2022-09-06T07:54:38.929Z,95710.25
2022-09-06T07:57:41.913Z,95702.69
2022-09-06T08:00:44.956Z,95706.31
2022-09-06T08:03:48.885Z,95701.44
2022-09-06T08:10:18.793Z,95694.84
2022-09-06T08:13:21.970Z,95687.28
2022-09-06T08:16:28.010Z,95697.53
2022-09-06T08:19:31.255Z,95685.06
2022-09-06T08:22:34.479Z,95696.59
2022-09-06T08:25:38.885Z,95693.59
2022-09-06T08:28:41.875Z,95691.69
2022-09-06T08:31:45.892Z,95690.28
2022-09-06T08:34:49.194Z,95679.06
2022-09-06T08:37:52.329Z,95672.63
2022-09-06T08:41:09.035Z,95675.75
2022-09-06T08:47:38.554Z,95665.53
2022-09-06T08:50:45.908Z,95669.47
2022-09-06T08:53:48.972Z,95661.13
2022-09-06T08:57:07.361Z,95655.75
2022-09-06T09:00:13.011Z,95644.09
2022-09-06T09:03:19.959Z,95645.66
2022-09-06T09:06:25.011Z,95641.88
2022-09-06T09:09:31.488Z,95637.31
2022-09-06T09:12:46.728Z,95620.75
2022-09-06T09:15:49.861Z,95618.22
2022-09-06T09:18:55.161Z,95609.56
2022-09-06T09:21:58.277Z,95617.13
2022-09-06T09:25:03.291Z,95607.19
2022-09-06T09:28:16.385Z,95604.97
2022-09-06T09:31:34.684Z,95602.28
2022-09-06T09:34:40.865Z,95599.63
2022-09-06T09:40:52.923Z,95588.75
2022-09-06T09:44:04.406Z,95592.22
2022-09-06T09:47:24.910Z,95582.28
2022-09-06T09:50:30.306Z,95580.69
2022-09-06T09:53:33.386Z,95589.84
2022-09-06T09:56:44.688Z,95585.25
2022-09-06T09:59:57.226Z,95574.41
2022-09-06T10:03:00.430Z,95569.31
2022-09-06T10:06:04.095Z,95570.59
2022-09-06T10:09:19.191Z,95569.03
2022-09-06T10:12:31.153Z,95563.16
2022-09-06T10:15:37.600Z,95564.28
2022-09-06T10:18:42.334Z,95560.03
2022-09-06T10:21:45.321Z,95558.44
2022-09-06T10:25:00.581Z,95556.09
2022-09-06T10:28:32.261Z,95553.72
2022-09-06T10:31:49.925Z,95549.47
2022-09-06T10:35:11.112Z,95555.47
2022-09-06T10:38:33.033Z,95542.38
2022-09-06T10:42:02.649Z,95537.66
2022-09-06T10:45:18.685Z,95544.09
2022-09-06T10:48:28.793Z,95536.38
2022-09-06T10:51:39.595Z,95537.00
2022-09-06T10:54:46.983Z,95535.44
2022-09-06T11:01:28.013Z,95528.03
2022-09-06T11:11:35.665Z,95516.38
2022-09-06T11:14:40.419Z,95520.94
2022-09-06T11:17:50.311Z,95511.66
2022-09-06T11:21:17.484Z,95517.00
2022-09-06T11:24:33.412Z,95511.94
2022-09-06T11:27:40.279Z,95510.19
2022-09-06T11:30:48.366Z,95506.41
2022-09-06T11:34:03.724Z,95505.59
2022-09-06T11:37:24.787Z,95497.56
2022-09-06T11:40:30.738Z,95497.88
2022-09-06T11:43:49.586Z,95503.56
2022-09-06T11:47:02.440Z,95495.84
2022-09-06T11:50:26.840Z,95501.53
2022-09-06T11:53:33.212Z,95488.91
2022-09-06T11:56:41.923Z,95488.13
2022-09-06T12:00:00.537Z,95489.69
2022-09-06T12:06:35.529Z,95483.41
2022-09-06T12:09:42.633Z,95473.47
2022-09-06T12:12:49.047Z,95473.47
2022-09-06T12:15:56.602Z,95475.69
2022-09-06T12:19:01.790Z,95470.31
2022-09-06T12:22:04.917Z,95472.22
2022-09-06T12:25:18.080Z,95469.03
2022-09-06T12:28:29.062Z,95468.56
2022-09-06T12:31:39.737Z,95467.78
2022-09-06T12:34:47.204Z,95473.78
2022-09-06T12:37:54.982Z,95468.41
2022-09-06T12:41:01.256Z,95469.84
2022-09-06T12:44:07.430Z,95466.06
2022-09-06T12:47:15.340Z,95469.53
2022-09-06T12:50:20.905Z,95463.22
2022-09-06T12:53:25.574Z,95456.28
2022-09-06T12:56:32.927Z,95457.41
2022-09-06T12:59:36.022Z,95458.97
2022-09-06T13:02:45.087Z,95458.97
2022-09-06T13:05:48.601Z,95451.25
2022-09-06T13:08:55.555Z,95455.81
2022-09-06T13:12:06.431Z,95461.66
2022-09-06T13:15:15.842Z,95457.09
2022-09-06T13:18:24.028Z,95440.53
2022-09-06T13:21:31.234Z,95451.41
2022-09-06T13:24:56.997Z,95445.25
2022-09-06T13:28:02.436Z,95439.56
2022-09-06T13:31:09.231Z,95436.59
2022-09-06T13:34:12.323Z,95442.75
2022-09-06T13:37:15.493Z,95440.06
2022-09-06T13:41:07.015Z,95439.75
2022-09-06T13:44:09.006Z,95443.53
2022-09-06T13:47:12.039Z,95448.41
2022-09-06T13:50:15.991Z,95442.25
2022-09-06T13:53:20.849Z,95436.75
2022-09-06T13:56:23.964Z,95442.09
2022-09-06T13:59:28.934Z,95437.53
2022-09-06T14:02:32.523Z,95427.47
2022-09-06T14:05:39.022Z,95430.59
2022-09-06T14:09:05.822Z,95425.56
2022-09-06T14:12:33.544Z,95430.91
2022-09-06T14:15:38.008Z,95426.66
2022-09-06T14:18:41.541Z,95422.56
2022-09-06T14:21:44.742Z,95422.25
2022-09-06T14:24:48.865Z,95424.16
2022-09-06T14:27:52.139Z,95420.22
2022-09-06T14:30:56.651Z,95425.56
2022-09-06T14:34:00.212Z,95424.78
2022-09-06T14:37:03.266Z,95422.75
2022-09-06T14:40:27.733Z,95425.41
2022-09-06T14:43:31.496Z,95427.31
2022-09-06T14:46:36.189Z,95427.63
2022-09-06T14:49:39.322Z,95427.63
2022-09-06T14:52:42.415Z,95423.06
2022-09-06T14:55:45.465Z,95416.91
2022-09-06T14:58:48.850Z,95416.91
2022-09-06T15:01:53.799Z,95418.00
2022-09-06T15:04:56.950Z,95416.13
2022-09-06T15:08:00.106Z,95410.78
2022-09-06T15:11:04.234Z,95419.91
2022-09-06T15:14:09.711Z,95418.34
2022-09-06T15:17:14.362Z,95407.44
2022-09-06T15:20:17.528Z,95413.28
2022-09-06T15:23:27.856Z,95415.78
2022-09-06T15:26:31.582Z,95420.50
2022-09-06T15:29:34.658Z,95429.03
2022-09-06T15:32:39.154Z,95425.41
2022-09-06T15:35:43.779Z,95432.03
2022-09-06T15:38:48.222Z,95434.22
2022-09-06T15:41:52.461Z,95437.09
2022-09-06T15:44:55.594Z,95437.69
2022-09-06T15:48:00.194Z,95437.22
2022-09-06T15:51:04.218Z,95434.69
2022-09-06T15:54:08.206Z,95442.44
2022-09-06T15:57:11.369Z,95440.03
2022-09-06T16:00:17.213Z,95446.47
2022-09-06T16:03:21.686Z,95450.84
2022-09-06T16:06:27.508Z,95450.84
2022-09-06T16:09:31.859Z,95455.88
2022-09-06T16:12:35.076Z,95454.75
2022-09-06T16:15:38.170Z,95452.38
2022-09-06T16:18:44.312Z,95446.88
2022-09-06T16:21:47.402Z,95450.50
2022-09-06T16:24:50.501Z,95447.19
2022-09-06T16:27:53.617Z,95442.81
2022-09-06T16:30:57.179Z,95449.75
2022-09-06T16:34:02.281Z,95448.38
2022-09-06T16:37:08.120Z,95450.94
2022-09-06T16:40:11.968Z,95449.66
2022-09-06T16:43:15.313Z,95451.88
2022-09-06T16:46:18.458Z,95450.91
2022-09-06T16:49:23.225Z,95460.22
2022-09-06T16:52:26.334Z,95456.44
2022-09-06T16:55:29.440Z,95461.34
2022-09-06T16:58:32.612Z,95465.91
2022-09-06T17:01:37.567Z,95464.81
2022-09-06T17:04:42.186Z,95465.59
2022-09-06T17:07:45.696Z,95462.91
2022-09-06T17:10:50.038Z,95468.75
2022-09-06T17:13:55.527Z,95476.94
2022-09-06T17:17:08.978Z,95483.84
2022-09-06T17:20:13.612Z,95485.09
2022-09-06T17:23:19.656Z,95488.88
2022-09-06T17:26:24.317Z,95490.13
2022-09-06T17:29:27.937Z,95498.66
2022-09-06T17:32:31.905Z,95501.63
2022-09-06T17:35:36.400Z,95497.69
2022-09-06T17:38:39.638Z,95496.31
2022-09-06T17:41:45.754Z,95498.34
2022-09-06T17:44:48.908Z,95504.34
2022-09-06T17:47:52.328Z,95499.13
2022-09-06T17:50:57.202Z,95507.97
2022-09-06T17:54:00.502Z,95507.16
2022-09-06T17:57:03.694Z,95511.44
2022-09-06T18:00:07.655Z,95513.78
2022-09-06T18:03:10.795Z,95513.63
2022-09-06T18:06:19.078Z,95512.38
2022-09-06T18:09:22.478Z,95511.13
2022-09-06T18:12:26.817Z,95517.09
2022-09-06T18:15:30.146Z,95527.03
2022-09-06T18:18:34.204Z,95530.03
2022-09-06T18:21:41.119Z,95532.38
2022-09-06T18:24:44.297Z,95534.41
2022-09-06T18:27:47.616Z,95531.59
2022-09-06T18:30:50.747Z,95534.41
2022-09-06T18:33:56.403Z,95533.63
2022-09-06T18:37:00.924Z,95534.59
2022-09-06T18:40:04.676Z,95533.50
2022-09-06T18:43:07.788Z,95539.94
2022-09-06T18:46:13.340Z,95540.88
2022-09-06T18:49:17.475Z,95536.31
2022-09-06T18:52:22.267Z,95542.31
2022-09-06T18:55:25.472Z,95543.09
2022-09-06T18:58:28.589Z,95532.84
2022-09-06T19:01:32.953Z,95539.00
2022-09-06T19:04:36.251Z,95542.31
2022-09-06T19:07:40.770Z,95541.84
2022-09-06T19:10:43.860Z,95539.16
2022-09-06T19:13:50.694Z,95540.72
2022-09-06T19:16:54.486Z,95542.91
2022-09-06T19:19:57.558Z,95536.75
2022-09-06T19:23:02.065Z,95538.06
2022-09-06T19:26:07.715Z,95533.13
2022-09-06T19:29:15.418Z,95524.94
2022-09-06T19:32:22.336Z,95537.09
2022-09-06T19:35:25.538Z,95532.50
2022-09-06T19:38:42.064Z,95534.59
2022-09-06T19:41:53.283Z,95523.88
2022-09-06T19:44:56.354Z,95528.13
2022-09-06T19:47:59.413Z,95521.47
2022-09-06T19:51:03.297Z,95520.69
2022-09-06T19:54:07.803Z,95515.34
2022-09-06T19:57:10.903Z,95521.31
2022-09-06T20:00:15.531Z,95525.09
2022-09-06T20:03:18.715Z,95516.59
2022-09-06T20:06:22.576Z,95515.66
2022-09-06T20:09:27.033Z,95524.38
2022-09-06T20:12:32.383Z,95516.81
2022-09-06T20:15:39.477Z,95521.47
2022-09-06T20:18:42.696Z,95521.16
2022-09-06T20:21:45.877Z,95523.97
2022-09-06T20:24:50.336Z,95516.56
2022-09-06T20:27:53.445Z,95521.25
2022-09-06T20:31:02.097Z,95523.91
2022-09-06T20:34:06.708Z,95518.16
2022-09-06T20:37:09.899Z,95520.94
2022-09-06T20:40:14.409Z,95528.44
2022-09-06T20:43:17.615Z,95526.56
2022-09-06T20:46:22.349Z,95529.63
2022-09-06T20:49:25.835Z,95531.47
2022-09-06T20:52:28.951Z,95528.19
2022-09-06T20:55:33.507Z,95536.69
2022-09-06T20:58:37.922Z,95537.22
2022-09-06T21:01:43.405Z,95537.16
2022-09-06T21:04:46.647Z,95533.44
2022-09-06T21:07:49.713Z,95537.41
2022-09-06T21:11:00.292Z,95541.06
2022-09-06T21:14:04.118Z,95530.09
2022-09-06T21:17:07.259Z,95533.22
2022-09-06T21:20:11.025Z,95535.88
2022-09-06T21:23:14.109Z,95537.53
2022-09-06T21:26:18.954Z,95538.34
2022-09-06T21:29:22.163Z,95539.34
2022-09-06T21:32:25.240Z,95528.31
2022-09-06T21:35:28.326Z,95525.56
2022-09-06T21:38:32.027Z,95526.84
2022-09-06T21:41:37.973Z,95523.56
2022-09-06T21:44:41.134Z,95520.53
2022-09-06T21:47:44.228Z,95528.78
2022-09-06T21:50:48.113Z,95529.19
2022-09-06T21:53:52.951Z,95541.22
2022-09-06T21:56:57.458Z,95536.53
2022-09-06T22:00:00.582Z,95537.13
2022-09-06T22:03:04.150Z,95536.31
2022-09-06T22:06:10.856Z,95534.00
2022-09-06T22:09:14.490Z,95530.25
2022-09-06T22:12:19.010Z,95541.66
2022-09-06T22:15:23.712Z,95535.28
2022-09-06T22:18:26.888Z,95538.47
2022-09-06T22:21:30.008Z,95539.88
2022-09-06T22:24:33.259Z,95537.50
2022-09-06T22:27:38.152Z,95536.09
2022-09-06T22:30:41.218Z,95522.63
2022-09-06T22:33:44.772Z,95529.34
2022-09-06T22:36:48.050Z,95533.69
2022-09-06T22:39:51.157Z,95532.25
2022-09-06T22:42:55.946Z,95534.03
2022-09-06T22:46:05.460Z,95532.19
2022-09-06T22:49:08.680Z,95527.19
2022-09-06T22:52:11.866Z,95524.78
2022-09-06T22:55:15.016Z,95528.34
2022-09-06T22:58:19.578Z,95523.19
2022-09-06T23:01:23.022Z,95520.03
2022-09-06T23:04:26.195Z,95528.03
2022-09-06T23:07:29.384Z,95524.63
2022-09-06T23:10:33.247Z,95527.31
2022-09-06T23:13:38.009Z,95522.66
2022-09-06T23:16:41.947Z,95533.66
2022-09-06T23:19:45.092Z,95533.97
2022-09-06T23:22:48.820Z,95536.66
2022-09-06T23:25:52.030Z,95529.63
2022-09-06T23:28:57.092Z,95521.41
2022-09-06T23:32:00.178Z,95534.75
2022-09-06T23:35:03.254Z,95532.47
2022-09-06T23:38:06.320Z,95525.16
2022-09-06T23:41:10.410Z,95530.88
2022-09-06T23:44:14.913Z,95532.75
2022-09-06T23:47:18.022Z,95531.72
2022-09-06T23:50:21.101Z,95540.91
2022-09-06T23:53:24.210Z,95544.38
2022-09-06T23:56:27.353Z,95547.44
2022-09-06T23:59:31.813Z,95547.13
